createdAt,value
2022-07-26T01:36:01.656Z,371.55
2022-07-26T01:50:57.701Z,376.67
2022-07-26T03:46:21.661Z,369.93
2022-07-26T05:18:13.780Z,417.87
2022-07-26T06:03:37.532Z,284.90
2022-07-26T06:34:14.615Z,333.61
2022-07-26T07:35:40.260Z,374.23
2022-07-26T08:42:16.657Z,430.03
2022-07-26T09:12:15.356Z,433.92
2022-07-26T09:27:15.806Z,411.70
2022-07-26T09:42:27.727Z,372.05
2022-07-26T09:57:16.573Z,170.22
2022-07-26T10:27:22.311Z,340.05
2022-07-26T10:59:53.564Z,352.10
2022-07-26T11:14:30.811Z,251.50
2022-07-26T12:02:45.735Z,322.85
2022-07-26T12:17:45.112Z,572.60
2022-07-26T12:32:45.398Z,216.17
2022-07-26T12:47:45.890Z,278.58
2022-07-26T13:02:46.266Z,30.70
2022-07-26T13:17:46.295Z,40.08
2022-07-26T13:32:46.630Z,37.00
2022-07-26T13:47:47.300Z,22.55
2022-07-26T14:02:47.215Z,63.55
2022-07-26T14:17:47.914Z,36.58
2022-07-26T14:32:47.915Z,41.65
2022-07-26T14:47:48.246Z,67.92
2022-07-26T15:02:48.694Z,360.88
2022-07-26T15:17:50.490Z,235.78
2022-07-26T15:32:49.236Z,311.45
2022-07-26T15:47:55.118Z,76.55
2022-07-26T16:02:49.809Z,36.68
2022-07-26T16:17:50.277Z,32.38
2022-07-26T16:32:50.757Z,404.57
2022-07-26T16:47:53.678Z,375.70
2022-07-26T17:02:51.128Z,285.80
2022-07-26T17:17:51.453Z,352.45
2022-07-26T17:32:52.270Z,346.55
2022-07-26T17:47:51.958Z,346.68
2022-07-26T18:02:52.382Z,354.75
2022-07-26T18:17:52.976Z,363.00
2022-07-26T18:32:53.080Z,275.90
2022-07-26T18:47:55.933Z,289.40
2022-07-26T19:02:53.716Z,217.43
2022-07-26T19:17:53.904Z,210.33
2022-07-26T19:32:54.324Z,203.77
2022-07-26T20:22:41.967Z,353.83
2022-07-26T20:37:42.245Z,402.23
2022-07-26T20:52:45.561Z,313.10
2022-07-26T21:07:53.816Z,334.83
2022-07-26T21:22:43.260Z,325.03
2022-07-26T21:37:46.444Z,313.77
2022-07-26T21:52:43.929Z,354.07
2022-07-26T22:07:46.767Z,344.33
2022-07-26T22:22:44.522Z,351.52
2022-07-26T22:37:46.587Z,347.12
2022-07-26T22:52:45.304Z,351.12
2022-07-26T23:07:48.422Z,355.00
2022-07-26T23:37:48.506Z,355.35
2022-07-26T23:52:47.662Z,353.02
